Terminal Aerodrome Forecast
Issued by NWS

Home | Current Version | Previous Version | Text Only | Print | Product List | Glossary On
Versions: 1 2 3 4 5 6 7 8 9 10 11 12
000
FTUS46 KLOX 262300
TAFSBP
TAF
KSBP 262331Z 2700/2724 33015KT P6SM SCT250
     FM270200 33008KT P6SM SCT250
     FM270500 VRB03KT P6SM SCT250
     FM271800 31010KT P6SM BKN080
     FM272100 31018G25KT P6SM SCT025 BKN060=

USA.gov is the U.S. government's official web portal to all federal, state and local government web resources and services.